createdAt,value
2022-12-18T00:00:03.920Z,343
2022-12-18T00:00:33.971Z,343
2022-12-18T00:01:05.819Z,343
2022-12-18T00:01:34.651Z,343
2022-12-18T00:01:54.893Z,343
2022-12-18T00:02:25.870Z,343
2022-12-18T00:02:57.949Z,343
2022-12-18T00:03:29.979Z,343
2022-12-18T00:04:01.991Z,343
2022-12-18T00:04:33.868Z,343
2022-12-18T00:05:06.980Z,343
2022-12-18T00:05:34.296Z,343
2022-12-18T00:05:54.579Z,343
2022-12-18T00:06:25.828Z,343
2022-12-18T00:06:42.352Z,343
2022-12-18T00:07:13.829Z,343
2022-12-18T00:07:35.274Z,343
2022-12-18T00:08:01.924Z,343
2022-12-18T00:08:34.259Z,343
2022-12-18T00:09:05.830Z,343
2022-12-18T00:09:39.654Z,343
2022-12-18T00:09:54.357Z,343
2022-12-18T00:10:26.188Z,343
2022-12-18T00:10:59.800Z,343
2022-12-18T00:11:30.666Z,343
2022-12-18T00:12:33.872Z,343
2022-12-18T00:13:09.810Z,343
2022-12-18T00:13:34.295Z,343
2022-12-18T00:13:54.292Z,343
2022-12-18T00:14:25.886Z,343
2022-12-18T00:14:57.864Z,343
2022-12-18T00:15:30.380Z,343
2022-12-18T00:16:03.293Z,343
2022-12-18T00:16:34.080Z,343
2022-12-18T00:17:05.872Z,343
2022-12-18T00:17:34.290Z,343
2022-12-18T00:17:54.814Z,343
2022-12-18T00:18:25.895Z,343
2022-12-18T00:18:57.901Z,343
2022-12-18T00:19:29.910Z,343
2022-12-18T00:20:03.285Z,343
2022-12-18T00:20:34.207Z,343
2022-12-18T00:21:06.584Z,343
2022-12-18T00:21:34.306Z,343
2022-12-18T00:21:54.335Z,343
2022-12-18T00:22:25.877Z,343
2022-12-18T00:22:57.885Z,343
2022-12-18T00:23:29.846Z,343
2022-12-18T00:24:01.869Z,343
2022-12-18T00:24:33.874Z,342
2022-12-18T00:25:06.179Z,342
2022-12-18T00:25:34.337Z,342
2022-12-18T00:25:54.651Z,342
2022-12-18T00:26:25.892Z,342
2022-12-18T00:26:57.928Z,342
2022-12-18T00:27:30.606Z,341
2022-12-18T00:28:01.934Z,341
2022-12-18T00:28:33.896Z,341
2022-12-18T00:29:05.920Z,341
2022-12-18T00:29:34.276Z,341
2022-12-18T00:29:54.342Z,341
2022-12-18T00:30:26.471Z,341
2022-12-18T00:30:57.942Z,341
2022-12-18T00:31:29.984Z,341
2022-12-18T00:32:01.950Z,341
2022-12-18T00:32:33.886Z,341
2022-12-18T00:33:05.887Z,341
2022-12-18T00:33:34.285Z,341
2022-12-18T00:33:55.421Z,341
2022-12-18T00:34:25.910Z,341
2022-12-18T00:34:57.894Z,341
2022-12-18T00:35:30.199Z,341
2022-12-18T00:36:01.957Z,341
2022-12-18T00:36:33.930Z,341
2022-12-18T00:37:05.907Z,341
2022-12-18T00:37:35.302Z,341
2022-12-18T00:37:54.435Z,341
2022-12-18T00:38:25.912Z,341
2022-12-18T00:38:58.701Z,341
2022-12-18T00:39:29.895Z,341
2022-12-18T00:40:03.457Z,341
2022-12-18T00:40:34.152Z,341
2022-12-18T00:41:05.888Z,341
2022-12-18T00:41:34.275Z,341
2022-12-18T00:41:54.373Z,341
2022-12-18T00:42:25.991Z,341
2022-12-18T00:42:57.996Z,341
2022-12-18T00:43:29.905Z,341
2022-12-18T00:44:01.946Z,341
2022-12-18T00:44:33.946Z,341
2022-12-18T00:45:12.097Z,341
2022-12-18T00:45:34.409Z,341
2022-12-18T00:45:54.815Z,341
2022-12-18T00:46:25.942Z,341
2022-12-18T00:46:57.924Z,341
2022-12-18T00:47:30.036Z,341
2022-12-18T00:48:01.926Z,341
2022-12-18T00:48:35.826Z,341
2022-12-18T00:49:05.939Z,341
2022-12-18T00:49:34.287Z,341
2022-12-18T00:49:54.425Z,341
2022-12-18T00:50:26.318Z,341
2022-12-18T00:50:58.010Z,341
2022-12-18T00:51:29.954Z,341
2022-12-18T00:52:01.963Z,340
2022-12-18T00:52:33.980Z,340
2022-12-18T00:53:05.984Z,340
2022-12-18T00:53:34.294Z,339
2022-12-18T00:53:54.448Z,339
2022-12-18T00:54:25.938Z,339
2022-12-18T00:55:01.841Z,338
2022-12-18T00:55:30.212Z,338
2022-12-18T00:56:01.926Z,338
2022-12-18T00:56:34.046Z,338
2022-12-18T00:57:06.040Z,337
2022-12-18T00:57:34.319Z,337
2022-12-18T00:57:54.689Z,337
2022-12-18T00:58:26.087Z,337
2022-12-18T00:58:58.036Z,336
2022-12-18T00:59:29.970Z,336
2022-12-18T01:00:03.841Z,336
2022-12-18T01:00:34.256Z,336
2022-12-18T01:01:06.099Z,335
2022-12-18T01:01:34.808Z,335
2022-12-18T01:01:54.512Z,335
2022-12-18T01:02:26.111Z,335
2022-12-18T01:02:58.030Z,335
2022-12-18T01:03:29.967Z,335
2022-12-18T01:04:01.995Z,335
2022-12-18T01:04:34.901Z,335
2022-12-18T01:05:06.301Z,336
2022-12-18T01:05:34.257Z,336
2022-12-18T01:05:54.693Z,336
2022-12-18T01:06:25.992Z,336
2022-12-18T01:06:57.967Z,336
2022-12-18T01:07:29.978Z,336
2022-12-18T01:08:02.019Z,336
2022-12-18T01:08:34.835Z,336
2022-12-18T01:09:05.992Z,336
2022-12-18T01:09:34.303Z,336
2022-12-18T01:09:54.452Z,336
2022-12-18T01:10:26.291Z,336
2022-12-18T01:10:58.784Z,336
2022-12-18T01:11:29.961Z,336
2022-12-18T01:12:01.979Z,336
2022-12-18T01:12:34.299Z,336
2022-12-18T01:13:05.990Z,336
2022-12-18T01:13:34.281Z,336
2022-12-18T01:13:54.474Z,336
2022-12-18T01:14:26.011Z,336
2022-12-18T01:14:58.062Z,336
2022-12-18T01:15:30.553Z,336
2022-12-18T01:16:03.224Z,336
2022-12-18T01:16:34.055Z,336
2022-12-18T01:17:06.022Z,336
2022-12-18T01:17:34.273Z,336
2022-12-18T01:17:54.476Z,336
2022-12-18T01:18:26.012Z,336
2022-12-18T01:18:58.012Z,336
2022-12-18T01:19:29.993Z,336
2022-12-18T01:20:03.308Z,336
2022-12-18T01:20:34.821Z,336
2022-12-18T01:21:05.979Z,336
2022-12-18T01:21:34.273Z,336
2022-12-18T01:21:54.448Z,336
2022-12-18T01:22:26.142Z,336
2022-12-18T01:22:58.055Z,336
2022-12-18T01:23:30.014Z,336
2022-12-18T01:24:02.037Z,336
2022-12-18T01:24:34.040Z,336
2022-12-18T01:25:06.490Z,336
2022-12-18T01:25:34.256Z,336
2022-12-18T01:25:54.727Z,336
2022-12-18T01:26:26.025Z,336
2022-12-18T01:26:58.953Z,336
2022-12-18T01:27:29.984Z,336
2022-12-18T01:28:02.026Z,336
2022-12-18T01:28:34.031Z,336
2022-12-18T01:29:06.017Z,336
2022-12-18T01:29:34.258Z,336
2022-12-18T01:29:54.473Z,336
2022-12-18T01:30:27.084Z,336
2022-12-18T01:30:58.096Z,336
2022-12-18T01:31:30.137Z,336
2022-12-18T01:32:02.106Z,336
2022-12-18T01:32:34.037Z,336
2022-12-18T01:33:06.124Z,336
2022-12-18T01:33:34.973Z,336
2022-12-18T01:33:54.561Z,336
2022-12-18T01:34:26.030Z,336
2022-12-18T01:34:58.101Z,336
2022-12-18T01:35:30.343Z,336
2022-12-18T01:36:02.061Z,336
2022-12-18T01:36:34.875Z,336
2022-12-18T01:37:06.043Z,336
2022-12-18T01:37:34.264Z,336
2022-12-18T01:37:54.531Z,336
2022-12-18T01:38:26.082Z,336
2022-12-18T01:38:58.048Z,336
2022-12-18T01:39:30.063Z,336
2022-12-18T01:40:03.326Z,336
2022-12-18T01:40:34.896Z,336
2022-12-18T01:41:06.153Z,336
2022-12-18T01:41:35.201Z,336
2022-12-18T01:41:54.678Z,336
2022-12-18T01:42:26.090Z,336
2022-12-18T01:42:59.154Z,336
2022-12-18T01:43:31.065Z,336
2022-12-18T01:44:02.187Z,336
2022-12-18T01:44:34.867Z,336
2022-12-18T01:45:11.860Z,336
2022-12-18T01:45:34.425Z,336
2022-12-18T01:45:56.366Z,336
2022-12-18T01:46:26.283Z,336
2022-12-18T01:46:58.276Z,336
2022-12-18T01:47:30.276Z,336
2022-12-18T01:48:02.296Z,336
2022-12-18T01:48:34.250Z,336
2022-12-18T01:49:06.104Z,336
2022-12-18T01:49:34.456Z,336
2022-12-18T01:49:54.867Z,336
2022-12-18T01:50:26.538Z,336
2022-12-18T01:50:58.104Z,336
2022-12-18T01:51:30.407Z,336
2022-12-18T01:52:02.100Z,336
2022-12-18T01:52:35.453Z,336
2022-12-18T01:53:06.216Z,336
2022-12-18T01:53:34.712Z,336
2022-12-18T01:53:54.620Z,336
2022-12-18T01:54:26.149Z,336
2022-12-18T01:54:58.141Z,336
2022-12-18T01:55:30.728Z,336
2022-12-18T01:56:02.150Z,336
2022-12-18T01:56:34.561Z,336
2022-12-18T01:57:06.133Z,336
2022-12-18T01:57:34.312Z,336
2022-12-18T01:57:54.557Z,337
2022-12-18T01:58:26.125Z,337
2022-12-18T01:58:58.986Z,337
2022-12-18T01:59:30.238Z,337
2022-12-18T02:00:04.141Z,337
2022-12-18T02:00:34.472Z,338
2022-12-18T02:01:06.142Z,338
2022-12-18T02:01:34.421Z,338
2022-12-18T02:01:54.810Z,338
2022-12-18T02:02:26.159Z,338
2022-12-18T02:02:58.616Z,339
2022-12-18T02:03:30.208Z,339
2022-12-18T02:04:02.186Z,339
2022-12-18T02:04:34.143Z,339
2022-12-18T02:05:06.577Z,339
2022-12-18T02:05:34.518Z,339
2022-12-18T02:05:54.945Z,339
2022-12-18T02:06:26.150Z,339
2022-12-18T02:06:58.201Z,339
2022-12-18T02:07:30.127Z,339
2022-12-18T02:08:02.176Z,339
2022-12-18T02:08:35.323Z,339
2022-12-18T02:09:06.119Z,339
2022-12-18T02:09:34.299Z,339
2022-12-18T02:09:54.669Z,339
2022-12-18T02:10:26.521Z,339
2022-12-18T02:10:58.224Z,338
2022-12-18T02:11:30.170Z,338
2022-12-18T02:12:02.191Z,338
2022-12-18T02:12:34.181Z,338
2022-12-18T02:13:06.141Z,338
2022-12-18T02:13:34.279Z,338
2022-12-18T02:13:54.681Z,338
2022-12-18T02:14:26.146Z,338
2022-12-18T02:14:59.098Z,338
2022-12-18T02:15:30.696Z,338
2022-12-18T02:16:03.466Z,338
2022-12-18T02:16:34.190Z,338
2022-12-18T02:17:06.155Z,338
2022-12-18T02:17:34.277Z,338
2022-12-18T02:17:54.732Z,338
2022-12-18T02:18:26.188Z,338
2022-12-18T02:18:58.236Z,338
2022-12-18T02:19:30.164Z,338
2022-12-18T02:20:03.598Z,338
2022-12-18T02:20:34.221Z,338
2022-12-18T02:21:06.203Z,338
2022-12-18T02:21:34.416Z,338
2022-12-18T02:21:54.631Z,338
2022-12-18T02:22:26.182Z,338
2022-12-18T02:22:58.189Z,338
2022-12-18T02:23:30.177Z,338
2022-12-18T02:24:02.315Z,338
2022-12-18T02:24:35.494Z,338
2022-12-18T02:25:06.493Z,338
2022-12-18T02:25:34.263Z,338
2022-12-18T02:25:54.905Z,338
2022-12-18T02:26:26.232Z,338
2022-12-18T02:26:58.220Z,338
2022-12-18T02:27:30.198Z,338
2022-12-18T02:28:02.208Z,338
2022-12-18T02:28:34.731Z,338
2022-12-18T02:29:06.228Z,338
2022-12-18T02:29:34.903Z,338
2022-12-18T02:29:58.233Z,338
2022-12-18T02:30:26.772Z,338
2022-12-18T02:30:59.605Z,338
2022-12-18T02:31:30.210Z,338
2022-12-18T02:32:02.196Z,338
2022-12-18T02:32:34.196Z,338
2022-12-18T02:33:06.172Z,338
2022-12-18T02:33:34.774Z,338
2022-12-18T02:33:54.694Z,338
2022-12-18T02:34:26.294Z,338
2022-12-18T02:34:58.246Z,338
2022-12-18T02:35:30.491Z,338
2022-12-18T02:36:02.274Z,338
2022-12-18T02:36:34.223Z,338
2022-12-18T02:37:06.223Z,338
2022-12-18T02:37:34.262Z,338
2022-12-18T02:37:54.665Z,338
2022-12-18T02:38:26.159Z,338
2022-12-18T02:38:59.035Z,338
2022-12-18T02:39:30.153Z,337
2022-12-18T02:40:03.284Z,337
2022-12-18T02:40:34.891Z,337
2022-12-18T02:41:06.207Z,334
2022-12-18T02:41:34.260Z,331
2022-12-18T02:41:54.669Z,328
2022-12-18T02:42:26.192Z,324
2022-12-18T02:42:58.188Z,321
2022-12-18T02:43:30.222Z,317
2022-12-18T02:44:02.227Z,313
2022-12-18T02:44:34.842Z,309
2022-12-18T02:45:06.762Z,305
2022-12-18T02:45:34.299Z,301
2022-12-18T02:45:55.125Z,297
2022-12-18T02:46:26.213Z,292
2022-12-18T02:46:58.200Z,288
2022-12-18T02:47:30.174Z,285
2022-12-18T02:48:02.176Z,282
2022-12-18T02:48:35.135Z,281
2022-12-18T02:49:06.189Z,281
2022-12-18T02:49:34.250Z,280
2022-12-18T02:49:54.664Z,280
2022-12-18T02:50:26.491Z,280
2022-12-18T02:50:58.280Z,282
2022-12-18T02:51:30.206Z,285
2022-12-18T02:52:02.273Z,288
2022-12-18T02:52:34.257Z,291
2022-12-18T02:53:06.225Z,294
2022-12-18T02:53:34.234Z,297
2022-12-18T02:53:54.752Z,300
2022-12-18T02:54:26.223Z,303
2022-12-18T02:54:59.027Z,306
2022-12-18T02:55:30.478Z,309
2022-12-18T02:56:02.218Z,312
2022-12-18T02:56:34.211Z,314
2022-12-18T02:57:06.209Z,317
2022-12-18T02:57:34.241Z,319
2022-12-18T02:57:54.687Z,321
2022-12-18T02:58:26.235Z,321
2022-12-18T02:58:58.285Z,321
2022-12-18T02:59:30.240Z,321
2022-12-18T03:00:04.107Z,321
2022-12-18T03:00:34.364Z,321
2022-12-18T03:01:06.316Z,321
2022-12-18T03:01:34.869Z,321
2022-12-18T03:01:54.922Z,321
2022-12-18T03:02:26.372Z,322
2022-12-18T03:02:58.477Z,322
2022-12-18T03:03:30.347Z,322
2022-12-18T03:04:02.206Z,322
2022-12-18T03:04:35.342Z,322
2022-12-18T03:05:06.549Z,322
2022-12-18T03:05:34.243Z,322
2022-12-18T03:05:54.986Z,322
2022-12-18T03:06:26.258Z,322
2022-12-18T03:06:58.282Z,322
2022-12-18T03:07:30.282Z,323
2022-12-18T03:08:02.269Z,323
2022-12-18T03:08:34.681Z,322
2022-12-18T03:09:06.264Z,323
2022-12-18T03:09:34.535Z,323
2022-12-18T03:09:54.714Z,324
2022-12-18T03:10:26.510Z,327
2022-12-18T03:10:59.096Z,331
2022-12-18T03:11:30.225Z,334
2022-12-18T03:12:02.242Z,338
2022-12-18T03:12:34.349Z,342
2022-12-18T03:13:06.243Z,346
2022-12-18T03:13:34.249Z,350
2022-12-18T03:13:54.721Z,355
2022-12-18T03:14:26.300Z,360
2022-12-18T03:14:58.253Z,4
2022-12-18T03:15:30.928Z,10
2022-12-18T03:16:03.054Z,17
2022-12-18T03:16:34.324Z,25
2022-12-18T03:17:06.348Z,32
2022-12-18T03:17:34.215Z,40
2022-12-18T03:17:54.725Z,46
2022-12-18T03:18:26.270Z,51
2022-12-18T03:18:58.255Z,56
2022-12-18T03:19:30.273Z,60
2022-12-18T03:20:03.347Z,63
2022-12-18T03:20:35.071Z,64
2022-12-18T03:21:06.263Z,65
2022-12-18T03:21:34.759Z,66
2022-12-18T03:21:54.790Z,68
2022-12-18T03:22:26.316Z,69
2022-12-18T03:22:58.368Z,70
2022-12-18T03:23:30.255Z,71
2022-12-18T03:24:02.318Z,72
2022-12-18T03:24:35.363Z,73
2022-12-18T03:25:06.601Z,74
2022-12-18T03:25:35.045Z,71
2022-12-18T03:25:54.955Z,68
2022-12-18T03:26:26.309Z,65
2022-12-18T03:26:59.087Z,65
2022-12-18T03:27:30.282Z,63
2022-12-18T03:28:02.273Z,63
2022-12-18T03:28:34.264Z,62
2022-12-18T03:29:06.308Z,62
2022-12-18T03:29:34.222Z,62
2022-12-18T03:29:54.876Z,62
2022-12-18T03:30:26.852Z,62
2022-12-18T03:30:58.460Z,62
2022-12-18T03:31:30.379Z,62
2022-12-18T03:32:02.273Z,62
2022-12-18T03:32:34.300Z,62
2022-12-18T03:33:06.311Z,62
2022-12-18T03:33:34.210Z,61
2022-12-18T03:33:54.707Z,59
2022-12-18T03:34:26.311Z,57
2022-12-18T03:34:58.307Z,55
2022-12-18T03:35:30.620Z,53
2022-12-18T03:36:02.305Z,51
2022-12-18T03:36:35.325Z,49
2022-12-18T03:37:06.360Z,47
2022-12-18T03:37:34.219Z,45
2022-12-18T03:37:54.829Z,42
2022-12-18T03:38:26.295Z,40
2022-12-18T03:38:58.319Z,38
2022-12-18T03:39:30.310Z,36
2022-12-18T03:40:03.421Z,34
2022-12-18T03:40:34.344Z,32
2022-12-18T03:41:06.320Z,30
2022-12-18T03:41:34.323Z,28
2022-12-18T03:41:54.737Z,26
2022-12-18T03:42:26.335Z,24
2022-12-18T03:42:59.122Z,22
2022-12-18T03:43:30.295Z,20
2022-12-18T03:44:02.320Z,20
2022-12-18T03:44:34.614Z,20
2022-12-18T03:45:06.862Z,20
2022-12-18T03:45:34.250Z,20
2022-12-18T03:45:55.248Z,20
2022-12-18T03:46:26.642Z,20
2022-12-18T03:46:58.319Z,20
2022-12-18T03:47:30.353Z,20
2022-12-18T03:48:02.375Z,20
2022-12-18T03:48:34.336Z,20
2022-12-18T03:49:06.311Z,20
2022-12-18T03:49:34.213Z,20
2022-12-18T03:49:54.748Z,20
2022-12-18T03:50:26.844Z,21
2022-12-18T03:50:58.348Z,21
2022-12-18T03:51:30.298Z,23
2022-12-18T03:52:02.317Z,25
2022-12-18T03:52:35.388Z,28
2022-12-18T03:53:06.326Z,31
2022-12-18T03:53:34.211Z,33
2022-12-18T03:53:55.144Z,36
2022-12-18T03:54:26.390Z,38
2022-12-18T03:54:58.363Z,40
2022-12-18T03:55:30.597Z,43
2022-12-18T03:56:02.413Z,45
2022-12-18T03:56:34.364Z,48
2022-12-18T03:57:06.376Z,51
2022-12-18T03:57:34.207Z,54
2022-12-18T03:57:54.809Z,56
2022-12-18T03:58:26.348Z,58
2022-12-18T03:59:00.139Z,61
2022-12-18T03:59:30.334Z,63
2022-12-18T04:00:04.070Z,67
2022-12-18T04:00:34.348Z,69
2022-12-18T04:01:06.435Z,72
2022-12-18T04:01:34.900Z,72
2022-12-18T04:01:55.092Z,73
2022-12-18T04:02:32.716Z,73
2022-12-18T04:02:58.372Z,73
2022-12-18T04:03:30.485Z,75
2022-12-18T04:04:02.471Z,75
2022-12-18T04:04:34.385Z,76
2022-12-18T04:05:06.728Z,78
2022-12-18T04:05:34.231Z,79
2022-12-18T04:05:55.018Z,79
2022-12-18T04:06:26.374Z,79
2022-12-18T04:06:58.357Z,78
2022-12-18T04:07:30.342Z,78
2022-12-18T04:08:02.361Z,77
2022-12-18T04:08:36.463Z,77
2022-12-18T04:09:06.392Z,76
2022-12-18T04:09:34.210Z,77
2022-12-18T04:09:54.866Z,75
2022-12-18T04:10:26.654Z,75
2022-12-18T04:10:58.384Z,75
2022-12-18T04:11:30.397Z,75
2022-12-18T04:12:05.456Z,72
2022-12-18T04:12:34.346Z,72
2022-12-18T04:13:06.411Z,71
2022-12-18T04:13:34.212Z,68
2022-12-18T04:13:54.879Z,68
2022-12-18T04:14:26.372Z,68
2022-12-18T04:14:59.194Z,66
2022-12-18T04:15:30.953Z,65
2022-12-18T04:16:03.284Z,65
2022-12-18T04:16:34.380Z,68
2022-12-18T04:17:06.392Z,71
2022-12-18T04:17:34.735Z,75
2022-12-18T04:17:54.882Z,78
2022-12-18T04:18:26.416Z,83
2022-12-18T04:18:58.358Z,84
2022-12-18T04:19:30.439Z,85
2022-12-18T04:20:03.428Z,90
2022-12-18T04:20:34.404Z,90
2022-12-18T04:21:06.374Z,90
2022-12-18T04:21:34.564Z,90
2022-12-18T04:21:54.823Z,90
2022-12-18T04:22:26.432Z,90
2022-12-18T04:22:58.388Z,90
2022-12-18T04:23:30.381Z,90
2022-12-18T04:24:02.384Z,90
2022-12-18T04:24:35.112Z,90
2022-12-18T04:25:06.726Z,90
2022-12-18T04:25:34.197Z,90
2022-12-18T04:25:55.114Z,90
2022-12-18T04:26:26.416Z,90
2022-12-18T04:26:58.445Z,90
2022-12-18T04:27:30.384Z,90
2022-12-18T04:28:02.448Z,90
2022-12-18T04:28:34.432Z,90
2022-12-18T04:29:06.422Z,90
2022-12-18T04:29:34.233Z,90
2022-12-18T04:29:54.871Z,90
2022-12-18T04:30:27.010Z,90
2022-12-18T04:30:59.188Z,90
2022-12-18T04:31:30.459Z,90
2022-12-18T04:32:02.407Z,90
2022-12-18T04:32:34.395Z,90
2022-12-18T04:33:06.449Z,90
2022-12-18T04:33:34.225Z,90
2022-12-18T04:33:54.822Z,87
2022-12-18T04:34:26.435Z,87
2022-12-18T04:34:58.429Z,88
2022-12-18T04:35:30.730Z,88
2022-12-18T04:36:02.423Z,89
2022-12-18T04:36:34.432Z,85
2022-12-18T04:37:06.526Z,81
2022-12-18T04:37:34.202Z,78
2022-12-18T04:37:54.852Z,74
2022-12-18T04:38:26.445Z,71
2022-12-18T04:39:00.208Z,71
2022-12-18T04:39:31.094Z,72
2022-12-18T04:40:03.219Z,72
2022-12-18T04:40:34.909Z,72
2022-12-18T04:41:06.411Z,71
2022-12-18T04:41:34.215Z,70
2022-12-18T04:41:54.928Z,69
2022-12-18T04:42:26.425Z,69
2022-12-18T04:42:58.592Z,69
2022-12-18T04:43:30.420Z,70
2022-12-18T04:44:02.477Z,70
2022-12-18T04:44:34.391Z,71
2022-12-18T04:45:07.029Z,71
2022-12-18T04:45:34.261Z,72
2022-12-18T04:45:55.160Z,72
2022-12-18T04:46:26.458Z,73
2022-12-18T04:46:58.425Z,73
2022-12-18T04:47:30.393Z,74
2022-12-18T04:48:02.393Z,74
2022-12-18T04:48:35.261Z,75
2022-12-18T04:49:06.451Z,75
2022-12-18T04:49:34.530Z,76
2022-12-18T04:49:54.886Z,77
2022-12-18T04:50:27.230Z,77
2022-12-18T04:50:58.452Z,78
2022-12-18T04:51:30.442Z,79
2022-12-18T04:52:02.461Z,80
2022-12-18T04:52:34.440Z,82
2022-12-18T04:53:06.423Z,84
2022-12-18T04:53:34.211Z,87
2022-12-18T04:53:54.858Z,86
2022-12-18T04:54:26.449Z,90
2022-12-18T04:54:59.358Z,90
2022-12-18T04:55:30.783Z,90
2022-12-18T04:56:02.474Z,90
2022-12-18T04:56:34.421Z,90
2022-12-18T04:57:06.445Z,90
2022-12-18T04:57:34.200Z,90
2022-12-18T04:57:54.888Z,90
2022-12-18T04:58:27.362Z,90
2022-12-18T04:58:58.488Z,90
2022-12-18T04:59:30.435Z,90
2022-12-18T05:00:03.673Z,90
2022-12-18T05:00:34.492Z,90
2022-12-18T05:01:06.499Z,90
2022-12-18T05:01:34.960Z,90
2022-12-18T05:01:54.984Z,90
2022-12-18T05:02:26.164Z,180
2022-12-18T05:02:58.272Z,180
2022-12-18T05:03:30.064Z,180
2022-12-18T05:04:02.105Z,180
2022-12-18T05:04:34.932Z,180
2022-12-18T05:05:06.323Z,180
2022-12-18T05:05:34.221Z,180
2022-12-18T05:05:54.255Z,180
2022-12-18T05:06:28.438Z,180
2022-12-18T05:07:00.130Z,180
2022-12-18T05:07:30.496Z,180
2022-12-18T05:08:02.447Z,180
2022-12-18T05:08:34.512Z,180
2022-12-18T05:09:06.500Z,180
2022-12-18T05:09:34.197Z,180
2022-12-18T05:09:54.470Z,180
2022-12-18T05:10:26.753Z,180
2022-12-18T05:10:59.316Z,90
2022-12-18T05:11:30.628Z,90
2022-12-18T05:12:02.490Z,90
2022-12-18T05:12:35.002Z,90
2022-12-18T05:13:06.485Z,90
2022-12-18T05:13:34.206Z,90
2022-12-18T05:13:54.505Z,90
2022-12-18T05:14:26.469Z,90
2022-12-18T05:14:58.519Z,90
2022-12-18T05:15:31.163Z,90
2022-12-18T05:16:03.280Z,90
2022-12-18T05:16:34.481Z,90
2022-12-18T05:17:06.538Z,90
2022-12-18T05:17:34.533Z,90
2022-12-18T05:17:54.547Z,90
2022-12-18T05:18:26.482Z,90
2022-12-18T05:18:58.563Z,90
2022-12-18T05:19:30.486Z,90
2022-12-18T05:20:03.456Z,90
2022-12-18T05:20:36.706Z,90
2022-12-18T05:21:06.491Z,85
2022-12-18T05:21:34.302Z,79
2022-12-18T05:21:54.525Z,74
2022-12-18T05:22:26.545Z,70
2022-12-18T05:22:58.501Z,67
2022-12-18T05:23:30.522Z,64
2022-12-18T05:24:02.553Z,61
2022-12-18T05:24:34.526Z,61
2022-12-18T05:25:06.762Z,62
2022-12-18T05:25:34.226Z,62
2022-12-18T05:25:54.718Z,62
2022-12-18T05:26:26.503Z,62
2022-12-18T05:26:59.336Z,63
2022-12-18T05:27:30.558Z,64
2022-12-18T05:28:02.487Z,64
2022-12-18T05:28:34.500Z,65
2022-12-18T05:29:06.491Z,66
2022-12-18T05:29:34.243Z,66
2022-12-18T05:29:54.516Z,67
2022-12-18T05:30:27.055Z,68
2022-12-18T05:30:58.726Z,68
2022-12-18T05:31:34.607Z,72
2022-12-18T05:32:02.536Z,76
2022-12-18T05:32:35.232Z,80
2022-12-18T05:33:06.537Z,84
2022-12-18T05:33:34.364Z,89
2022-12-18T05:33:54.517Z,90
2022-12-18T05:34:26.499Z,90
2022-12-18T05:34:58.514Z,90
2022-12-18T05:35:30.836Z,90
2022-12-18T05:36:02.492Z,90
2022-12-18T05:36:35.531Z,90
2022-12-18T05:37:06.592Z,90
2022-12-18T05:37:38.198Z,90
2022-12-18T05:37:54.511Z,90
2022-12-18T05:38:26.525Z,90
2022-12-18T05:38:58.620Z,90
2022-12-18T05:39:30.545Z,90
2022-12-18T05:40:03.462Z,90
2022-12-18T05:40:38.902Z,90
2022-12-18T05:41:06.568Z,90
2022-12-18T05:41:34.630Z,90
2022-12-18T05:41:54.512Z,90
2022-12-18T05:42:26.534Z,90
2022-12-18T05:42:59.312Z,90
2022-12-18T05:43:30.515Z,87
2022-12-18T05:44:02.543Z,82
2022-12-18T05:44:34.542Z,78
2022-12-18T05:45:07.078Z,74
2022-12-18T05:45:34.233Z,71
2022-12-18T05:45:54.830Z,69
2022-12-18T05:46:26.572Z,69
2022-12-18T05:46:58.640Z,69
2022-12-18T05:47:30.557Z,69
2022-12-18T05:48:02.581Z,69
2022-12-18T05:48:34.519Z,69
2022-12-18T05:49:06.565Z,69
2022-12-18T05:49:34.646Z,69
2022-12-18T05:49:54.534Z,69
2022-12-18T05:50:26.827Z,69
2022-12-18T05:50:58.585Z,69
2022-12-18T05:51:30.537Z,71
2022-12-18T05:52:02.581Z,72
2022-12-18T05:52:35.322Z,73
2022-12-18T05:53:06.577Z,74
2022-12-18T05:53:34.203Z,75
2022-12-18T05:53:54.549Z,75
2022-12-18T05:54:26.547Z,76
2022-12-18T05:54:58.549Z,77
2022-12-18T05:55:30.925Z,77
2022-12-18T05:56:02.573Z,78
2022-12-18T05:56:34.585Z,81
2022-12-18T05:57:06.543Z,85
2022-12-18T05:57:34.419Z,89
2022-12-18T05:57:54.560Z,90
2022-12-18T05:58:26.544Z,90
2022-12-18T05:58:59.260Z,90
2022-12-18T05:59:30.546Z,90
2022-12-18T06:00:03.881Z,90
2022-12-18T06:00:34.584Z,90
2022-12-18T06:01:06.542Z,90
2022-12-18T06:01:34.292Z,90
2022-12-18T06:01:54.732Z,90
2022-12-18T06:02:26.698Z,90
2022-12-18T06:02:58.712Z,90
2022-12-18T06:03:33.920Z,90
2022-12-18T06:04:02.776Z,90
2022-12-18T06:04:34.603Z,90
2022-12-18T06:05:06.954Z,90
2022-12-18T06:05:34.294Z,90
2022-12-18T06:05:54.803Z,90
2022-12-18T06:06:26.564Z,90
2022-12-18T06:06:58.613Z,90
2022-12-18T06:07:30.588Z,90
2022-12-18T06:08:02.531Z,90
2022-12-18T06:08:35.579Z,90
2022-12-18T06:09:06.569Z,90
2022-12-18T06:09:34.217Z,90
2022-12-18T06:09:54.547Z,90
2022-12-18T06:10:26.844Z,90
2022-12-18T06:10:58.661Z,90
2022-12-18T06:11:30.625Z,90
2022-12-18T06:12:02.583Z,90
2022-12-18T06:12:34.600Z,90
2022-12-18T06:13:06.607Z,90
2022-12-18T06:13:34.202Z,90
2022-12-18T06:13:58.193Z,90
2022-12-18T06:14:26.583Z,90
2022-12-18T06:14:59.462Z,90
2022-12-18T06:15:31.151Z,90
2022-12-18T06:16:03.237Z,90
2022-12-18T06:16:34.986Z,90
2022-12-18T06:17:06.576Z,90
2022-12-18T06:17:34.274Z,90
2022-12-18T06:17:54.602Z,90
2022-12-18T06:18:26.589Z,90
2022-12-18T06:18:58.662Z,90
2022-12-18T06:19:30.645Z,90
2022-12-18T06:20:03.451Z,90
2022-12-18T06:20:34.612Z,90
2022-12-18T06:21:06.659Z,90
2022-12-18T06:21:34.215Z,90
2022-12-18T06:21:54.570Z,90
2022-12-18T06:22:26.574Z,90
2022-12-18T06:22:58.655Z,87
2022-12-18T06:23:30.592Z,88
2022-12-18T06:24:02.572Z,90
2022-12-18T06:24:36.499Z,90
2022-12-18T06:25:06.904Z,90
2022-12-18T06:25:34.280Z,90
2022-12-18T06:25:54.852Z,90
2022-12-18T06:26:28.284Z,90
2022-12-18T06:26:58.650Z,90
2022-12-18T06:27:30.631Z,90
2022-12-18T06:28:02.639Z,90
2022-12-18T06:28:35.672Z,90
2022-12-18T06:29:06.596Z,90
2022-12-18T06:29:34.705Z,90
2022-12-18T06:29:54.602Z,90
2022-12-18T06:30:27.139Z,90
2022-12-18T06:31:00.037Z,90
2022-12-18T06:31:30.662Z,90
2022-12-18T06:32:02.696Z,90
2022-12-18T06:32:35.019Z,90
2022-12-18T06:33:06.651Z,90
2022-12-18T06:33:34.217Z,90
2022-12-18T06:34:06.411Z,88
2022-12-18T06:34:26.632Z,83
2022-12-18T06:35:14.750Z,81
2022-12-18T06:35:36.243Z,79
2022-12-18T06:36:02.657Z,78
2022-12-18T06:36:34.648Z,74
2022-12-18T06:37:06.640Z,70
2022-12-18T06:37:34.240Z,67
2022-12-18T06:37:54.609Z,65
2022-12-18T06:38:26.611Z,63
2022-12-18T06:38:59.339Z,61
2022-12-18T06:39:30.617Z,59
2022-12-18T06:40:03.395Z,58
2022-12-18T06:40:34.607Z,58
2022-12-18T06:41:06.608Z,62
2022-12-18T06:41:34.219Z,65
2022-12-18T06:41:54.620Z,67
2022-12-18T06:42:26.628Z,67
2022-12-18T06:42:58.731Z,68
2022-12-18T06:43:30.665Z,72
2022-12-18T06:44:02.674Z,77
2022-12-18T06:44:35.256Z,82
2022-12-18T06:45:07.261Z,84
2022-12-18T06:45:34.299Z,88
2022-12-18T06:45:54.890Z,88
2022-12-18T06:46:26.710Z,89
2022-12-18T06:46:58.670Z,90
2022-12-18T06:47:30.655Z,90
2022-12-18T06:48:02.624Z,90
2022-12-18T06:48:35.635Z,90
2022-12-18T06:49:06.660Z,90
2022-12-18T06:49:34.217Z,90
2022-12-18T06:49:54.688Z,90
2022-12-18T06:50:26.926Z,90
2022-12-18T06:50:59.518Z,90
2022-12-18T06:51:30.675Z,86
2022-12-18T06:52:02.671Z,84
2022-12-18T06:52:34.643Z,83
2022-12-18T06:53:06.675Z,78
2022-12-18T06:53:34.609Z,74
2022-12-18T06:53:54.614Z,71
2022-12-18T06:54:26.631Z,68
2022-12-18T06:54:59.442Z,68
2022-12-18T06:55:30.938Z,66
2022-12-18T06:56:07.886Z,67
2022-12-18T06:56:34.629Z,66
2022-12-18T06:57:06.640Z,66
2022-12-18T06:57:34.208Z,66
2022-12-18T06:57:54.688Z,66
2022-12-18T06:58:26.668Z,66
2022-12-18T06:58:58.766Z,66
2022-12-18T06:59:30.671Z,66
2022-12-18T07:00:03.664Z,66
2022-12-18T07:00:34.746Z,66